sensor_id;sensor_type;location;lat;lon;timestamp;temperature;humidity
59309;DHT22;48433;53.016;-2.260;2023-04-06T00:01:45;9.40;99.90
59309;DHT22;48433;53.016;-2.260;2023-04-06T00:04:15;9.50;99.90
59309;DHT22;48433;53.016;-2.260;2023-04-06T00:06:43;9.50;99.90
59309;DHT22;48433;53.016;-2.260;2023-04-06T00:09:11;9.50;99.90
59309;DHT22;48433;53.016;-2.260;2023-04-06T00:11:38;9.50;99.90
59309;DHT22;48433;53.016;-2.260;2023-04-06T00:14:06;9.50;99.90
59309;DHT22;48433;53.016;-2.260;2023-04-06T00:16:34;9.50;99.90
59309;DHT22;48433;53.016;-2.260;2023-04-06T00:19:02;9.50;99.90
59309;DHT22;48433;53.016;-2.260;2023-04-06T00:21:29;9.60;99.90
59309;DHT22;48433;53.016;-2.260;2023-04-06T00:23:58;9.50;99.90
59309;DHT22;48433;53.016;-2.260;2023-04-06T00:26:26;9.60;99.90
59309;DHT22;48433;53.016;-2.260;2023-04-06T00:28:55;9.60;99.90
59309;DHT22;48433;53.016;-2.260;2023-04-06T00:31:23;9.60;99.90
59309;DHT22;48433;53.016;-2.260;2023-04-06T00:33:51;9.60;99.90
59309;DHT22;48433;53.016;-2.260;2023-04-06T00:36:18;9.60;99.90
59309;DHT22;48433;53.016;-2.260;2023-04-06T00:38:46;9.60;99.90
59309;DHT22;48433;53.016;-2.260;2023-04-06T00:41:14;9.60;99.90
59309;DHT22;48433;53.016;-2.260;2023-04-06T00:43:42;9.60;99.90
59309;DHT22;48433;53.016;-2.260;2023-04-06T00:46:09;9.60;99.90
59309;DHT22;48433;53.016;-2.260;2023-04-06T00:48:37;9.60;99.90
59309;DHT22;48433;53.016;-2.260;2023-04-06T00:51:06;9.60;99.90
59309;DHT22;48433;53.016;-2.260;2023-04-06T00:53:34;9.60;99.90
59309;DHT22;48433;53.016;-2.260;2023-04-06T00:56:02;9.60;99.90
59309;DHT22;48433;53.016;-2.260;2023-04-06T00:58:38;7.10;99.90
59309;DHT22;48433;53.016;-2.260;2023-04-06T01:01:09;9.60;99.90
59309;DHT22;48433;53.016;-2.260;2023-04-06T01:03:37;9.60;99.90
59309;DHT22;48433;53.016;-2.260;2023-04-06T01:06:05;9.70;99.90
59309;DHT22;48433;53.016;-2.260;2023-04-06T01:08:37;9.70;99.90
59309;DHT22;48433;53.016;-2.260;2023-04-06T01:11:17;9.70;99.90
59309;DHT22;48433;53.016;-2.260;2023-04-06T01:13:46;9.70;99.90
59309;DHT22;48433;53.016;-2.260;2023-04-06T01:16:25;9.80;99.90
59309;DHT22;48433;53.016;-2.260;2023-04-06T01:19:09;9.80;99.90
59309;DHT22;48433;53.016;-2.260;2023-04-06T01:21:41;9.80;99.90
59309;DHT22;48433;53.016;-2.260;2023-04-06T01:24:24;9.80;99.90
59309;DHT22;48433;53.016;-2.260;2023-04-06T01:27:01;9.80;99.90
59309;DHT22;48433;53.016;-2.260;2023-04-06T01:29:41;9.80;99.90
59309;DHT22;48433;53.016;-2.260;2023-04-06T01:32:19;9.80;99.90
59309;DHT22;48433;53.016;-2.260;2023-04-06T01:34:50;9.90;99.90
59309;DHT22;48433;53.016;-2.260;2023-04-06T01:37:18;9.90;99.90
59309;DHT22;48433;53.016;-2.260;2023-04-06T01:39:46;9.90;99.90
59309;DHT22;48433;53.016;-2.260;2023-04-06T01:42:24;9.90;99.90
59309;DHT22;48433;53.016;-2.260;2023-04-06T01:44:51;9.90;99.90
59309;DHT22;48433;53.016;-2.260;2023-04-06T01:47:19;9.90;99.90
59309;DHT22;48433;53.016;-2.260;2023-04-06T01:49:47;9.90;99.90
59309;DHT22;48433;53.016;-2.260;2023-04-06T01:52:15;9.90;99.90
59309;DHT22;48433;53.016;-2.260;2023-04-06T01:54:50;9.90;99.90
59309;DHT22;48433;53.016;-2.260;2023-04-06T01:57:35;9.90;99.90
59309;DHT22;48433;53.016;-2.260;2023-04-06T02:00:14;9.90;99.90
59309;DHT22;48433;53.016;-2.260;2023-04-06T02:02:49;9.90;99.90
59309;DHT22;48433;53.016;-2.260;2023-04-06T02:05:23;9.90;99.90
59309;DHT22;48433;53.016;-2.260;2023-04-06T02:07:52;9.90;99.90
59309;DHT22;48433;53.016;-2.260;2023-04-06T02:10:28;9.90;99.90
59309;DHT22;48433;53.016;-2.260;2023-04-06T02:12:59;9.90;99.90
59309;DHT22;48433;53.016;-2.260;2023-04-06T02:15:27;9.90;99.90
59309;DHT22;48433;53.016;-2.260;2023-04-06T02:17:55;9.80;99.90
59309;DHT22;48433;53.016;-2.260;2023-04-06T02:20:24;10.00;99.90
59309;DHT22;48433;53.016;-2.260;2023-04-06T02:22:52;9.90;99.90
59309;DHT22;48433;53.016;-2.260;2023-04-06T02:25:20;9.90;99.90
59309;DHT22;48433;53.016;-2.260;2023-04-06T02:27:48;9.90;99.90
59309;DHT22;48433;53.016;-2.260;2023-04-06T02:30:16;9.90;99.90
59309;DHT22;48433;53.016;-2.260;2023-04-06T02:32:44;9.90;99.90
59309;DHT22;48433;53.016;-2.260;2023-04-06T02:35:13;9.90;99.90
59309;DHT22;48433;53.016;-2.260;2023-04-06T02:37:40;9.90;99.90
59309;DHT22;48433;53.016;-2.260;2023-04-06T02:40:09;9.90;99.90
59309;DHT22;48433;53.016;-2.260;2023-04-06T02:42:36;9.90;99.90
59309;DHT22;48433;53.016;-2.260;2023-04-06T02:45:05;9.90;99.90
59309;DHT22;48433;53.016;-2.260;2023-04-06T02:47:39;9.90;99.90
59309;DHT22;48433;53.016;-2.260;2023-04-06T02:50:07;9.90;99.90
59309;DHT22;48433;53.016;-2.260;2023-04-06T02:52:41;9.90;99.90
59309;DHT22;48433;53.016;-2.260;2023-04-06T02:55:11;10.00;99.90
59309;DHT22;48433;53.016;-2.260;2023-04-06T02:57:38;9.90;99.90
59309;DHT22;48433;53.016;-2.260;2023-04-06T03:00:07;9.90;99.90
59309;DHT22;48433;53.016;-2.260;2023-04-06T03:02:39;9.90;99.90
59309;DHT22;48433;53.016;-2.260;2023-04-06T03:05:11;9.90;99.90
59309;DHT22;48433;53.016;-2.260;2023-04-06T03:07:42;10.00;99.90
59309;DHT22;48433;53.016;-2.260;2023-04-06T03:10:17;9.90;99.90
59309;DHT22;48433;53.016;-2.260;2023-04-06T03:12:47;9.90;99.90
59309;DHT22;48433;53.016;-2.260;2023-04-06T03:15:21;9.90;99.90
59309;DHT22;48433;53.016;-2.260;2023-04-06T03:17:59;9.90;99.90
59309;DHT22;48433;53.016;-2.260;2023-04-06T03:20:35;9.90;99.90
59309;DHT22;48433;53.016;-2.260;2023-04-06T03:23:03;9.90;99.90
59309;DHT22;48433;53.016;-2.260;2023-04-06T03:25:35;9.90;99.90
59309;DHT22;48433;53.016;-2.260;2023-04-06T03:28:06;9.90;99.90
59309;DHT22;48433;53.016;-2.260;2023-04-06T03:30:38;9.90;99.90
59309;DHT22;48433;53.016;-2.260;2023-04-06T03:33:06;9.90;99.90
59309;DHT22;48433;53.016;-2.260;2023-04-06T03:35:42;9.90;99.90
59309;DHT22;48433;53.016;-2.260;2023-04-06T03:38:10;9.90;99.90
59309;DHT22;48433;53.016;-2.260;2023-04-06T03:40:37;9.90;99.90
59309;DHT22;48433;53.016;-2.260;2023-04-06T03:43:05;10.00;99.90
59309;DHT22;48433;53.016;-2.260;2023-04-06T03:45:35;10.00;99.90
59309;DHT22;48433;53.016;-2.260;2023-04-06T03:48:05;9.90;99.90
59309;DHT22;48433;53.016;-2.260;2023-04-06T03:50:35;9.90;99.90
59309;DHT22;48433;53.016;-2.260;2023-04-06T03:53:03;10.00;99.90
59309;DHT22;48433;53.016;-2.260;2023-04-06T03:55:30;9.90;99.90
59309;DHT22;48433;53.016;-2.260;2023-04-06T03:57:58;9.90;99.90
59309;DHT22;48433;53.016;-2.260;2023-04-06T04:00:26;9.90;99.90
59309;DHT22;48433;53.016;-2.260;2023-04-06T04:02:55;9.90;99.90
59309;DHT22;48433;53.016;-2.260;2023-04-06T04:05:22;10.00;99.90
59309;DHT22;48433;53.016;-2.260;2023-04-06T04:07:53;10.00;99.90
59309;DHT22;48433;53.016;-2.260;2023-04-06T04:10:24;10.00;99.90
59309;DHT22;48433;53.016;-2.260;2023-04-06T04:12:52;9.90;99.90
59309;DHT22;48433;53.016;-2.260;2023-04-06T04:15:19;9.90;99.90
59309;DHT22;48433;53.016;-2.260;2023-04-06T04:17:48;9.90;99.90
59309;DHT22;48433;53.016;-2.260;2023-04-06T04:20:17;10.00;99.90
59309;DHT22;48433;53.016;-2.260;2023-04-06T04:22:44;9.90;99.90
59309;DHT22;48433;53.016;-2.260;2023-04-06T04:25:12;10.00;99.90
59309;DHT22;48433;53.016;-2.260;2023-04-06T04:27:45;10.00;99.90
59309;DHT22;48433;53.016;-2.260;2023-04-06T04:30:14;9.90;99.90
59309;DHT22;48433;53.016;-2.260;2023-04-06T04:32:42;10.00;99.90
59309;DHT22;48433;53.016;-2.260;2023-04-06T04:35:10;10.00;99.90
59309;DHT22;48433;53.016;-2.260;2023-04-06T04:37:41;10.00;99.90
59309;DHT22;48433;53.016;-2.260;2023-04-06T04:40:11;10.00;99.90
59309;DHT22;48433;53.016;-2.260;2023-04-06T04:42:47;10.00;99.90
59309;DHT22;48433;53.016;-2.260;2023-04-06T04:45:24;10.00;99.90
59309;DHT22;48433;53.016;-2.260;2023-04-06T04:47:52;10.00;99.90
59309;DHT22;48433;53.016;-2.260;2023-04-06T04:50:23;10.00;99.90
59309;DHT22;48433;53.016;-2.260;2023-04-06T04:52:55;10.00;99.90
59309;DHT22;48433;53.016;-2.260;2023-04-06T04:55:25;10.00;99.90
59309;DHT22;48433;53.016;-2.260;2023-04-06T04:57:57;10.00;99.90
59309;DHT22;48433;53.016;-2.260;2023-04-06T05:00:36;9.90;99.90
59309;DHT22;48433;53.016;-2.260;2023-04-06T05:03:05;9.90;99.90
59309;DHT22;48433;53.016;-2.260;2023-04-06T05:05:36;9.90;99.90
59309;DHT22;48433;53.016;-2.260;2023-04-06T05:08:05;9.90;99.90
59309;DHT22;48433;53.016;-2.260;2023-04-06T05:10:43;9.90;99.90
59309;DHT22;48433;53.016;-2.260;2023-04-06T05:13:12;9.90;99.90
59309;DHT22;48433;53.016;-2.260;2023-04-06T05:15:40;9.90;99.90
59309;DHT22;48433;53.016;-2.260;2023-04-06T05:18:19;9.90;99.90
59309;DHT22;48433;53.016;-2.260;2023-04-06T05:20:47;9.90;99.90
59309;DHT22;48433;53.016;-2.260;2023-04-06T05:23:15;9.90;99.90
59309;DHT22;48433;53.016;-2.260;2023-04-06T05:25:44;9.90;99.90
59309;DHT22;48433;53.016;-2.260;2023-04-06T05:28:17;9.90;99.90
59309;DHT22;48433;53.016;-2.260;2023-04-06T05:30:45;9.80;99.90
59309;DHT22;48433;53.016;-2.260;2023-04-06T05:33:14;9.80;99.90
59309;DHT22;48433;53.016;-2.260;2023-04-06T05:36:08;9.80;99.90
59309;DHT22;48433;53.016;-2.260;2023-04-06T05:38:39;9.80;99.90
59309;DHT22;48433;53.016;-2.260;2023-04-06T05:41:27;9.70;99.90
59309;DHT22;48433;53.016;-2.260;2023-04-06T05:43:55;9.70;99.90
59309;DHT22;48433;53.016;-2.260;2023-04-06T05:46:24;9.70;99.90
59309;DHT22;48433;53.016;-2.260;2023-04-06T05:48:54;9.60;99.90
59309;DHT22;48433;53.016;-2.260;2023-04-06T05:51:25;9.60;99.90
59309;DHT22;48433;53.016;-2.260;2023-04-06T05:53:54;9.60;99.90
59309;DHT22;48433;53.016;-2.260;2023-04-06T05:56:22;9.60;99.90
59309;DHT22;48433;53.016;-2.260;2023-04-06T06:01:26;9.60;99.90
59309;DHT22;48433;53.016;-2.260;2023-04-06T06:03:54;9.60;99.90
59309;DHT22;48433;53.016;-2.260;2023-04-06T06:06:25;9.60;99.90
59309;DHT22;48433;53.016;-2.260;2023-04-06T06:09:13;9.50;99.90
59309;DHT22;48433;53.016;-2.260;2023-04-06T06:11:49;9.50;99.90
59309;DHT22;48433;53.016;-2.260;2023-04-06T06:14:19;9.50;99.90
59309;DHT22;48433;53.016;-2.260;2023-04-06T06:16:48;9.50;99.90
59309;DHT22;48433;53.016;-2.260;2023-04-06T06:19:16;9.50;99.90
59309;DHT22;48433;53.016;-2.260;2023-04-06T06:21:44;9.50;99.90
59309;DHT22;48433;53.016;-2.260;2023-04-06T06:24:12;9.50;99.90
59309;DHT22;48433;53.016;-2.260;2023-04-06T06:26:40;9.50;99.90
59309;DHT22;48433;53.016;-2.260;2023-04-06T06:29:09;9.40;99.90
59309;DHT22;48433;53.016;-2.260;2023-04-06T06:31:39;9.40;99.90
59309;DHT22;48433;53.016;-2.260;2023-04-06T06:34:06;9.40;99.90
59309;DHT22;48433;53.016;-2.260;2023-04-06T06:36:36;9.30;99.90
59309;DHT22;48433;53.016;-2.260;2023-04-06T06:39:07;9.30;99.90
59309;DHT22;48433;53.016;-2.260;2023-04-06T06:41:36;9.30;99.90
59309;DHT22;48433;53.016;-2.260;2023-04-06T06:44:05;9.30;99.90
59309;DHT22;48433;53.016;-2.260;2023-04-06T06:46:34;9.30;99.90
59309;DHT22;48433;53.016;-2.260;2023-04-06T06:49:02;9.30;99.90
59309;DHT22;48433;53.016;-2.260;2023-04-06T06:51:30;9.30;99.90
59309;DHT22;48433;53.016;-2.260;2023-04-06T06:53:58;9.30;99.90
59309;DHT22;48433;53.016;-2.260;2023-04-06T06:56:25;9.30;99.90
59309;DHT22;48433;53.016;-2.260;2023-04-06T07:01:23;9.30;99.90
59309;DHT22;48433;53.016;-2.260;2023-04-06T07:03:51;9.30;99.90
59309;DHT22;48433;53.016;-2.260;2023-04-06T07:06:18;9.20;99.90
59309;DHT22;48433;53.016;-2.260;2023-04-06T07:08:46;9.20;99.90
59309;DHT22;48433;53.016;-2.260;2023-04-06T07:11:14;9.20;99.90
59309;DHT22;48433;53.016;-2.260;2023-04-06T07:13:43;9.20;99.90
59309;DHT22;48433;53.016;-2.260;2023-04-06T07:16:10;9.20;99.90
59309;DHT22;48433;53.016;-2.260;2023-04-06T07:18:38;9.20;99.90
59309;DHT22;48433;53.016;-2.260;2023-04-06T07:21:06;9.20;99.90
59309;DHT22;48433;53.016;-2.260;2023-04-06T07:23:33;9.30;99.90
59309;DHT22;48433;53.016;-2.260;2023-04-06T07:26:01;9.30;99.90
59309;DHT22;48433;53.016;-2.260;2023-04-06T07:28:30;9.40;99.90
59309;DHT22;48433;53.016;-2.260;2023-04-06T07:30:58;9.40;99.90
59309;DHT22;48433;53.016;-2.260;2023-04-06T07:33:26;9.50;99.90
59309;DHT22;48433;53.016;-2.260;2023-04-06T07:35:58;9.50;99.90
59309;DHT22;48433;53.016;-2.260;2023-04-06T07:38:26;9.50;99.90
59309;DHT22;48433;53.016;-2.260;2023-04-06T07:40:54;9.50;99.90
59309;DHT22;48433;53.016;-2.260;2023-04-06T07:43:22;9.60;99.90
59309;DHT22;48433;53.016;-2.260;2023-04-06T07:45:50;9.60;99.90
59309;DHT22;48433;53.016;-2.260;2023-04-06T07:48:18;9.70;99.90
59309;DHT22;48433;53.016;-2.260;2023-04-06T07:50:45;9.80;99.90
59309;DHT22;48433;53.016;-2.260;2023-04-06T07:53:15;9.90;99.90
59309;DHT22;48433;53.016;-2.260;2023-04-06T07:55:44;9.90;99.90
59309;DHT22;48433;53.016;-2.260;2023-04-06T07:58:12;10.00;99.90
59309;DHT22;48433;53.016;-2.260;2023-04-06T08:00:40;10.10;99.90
59309;DHT22;48433;53.016;-2.260;2023-04-06T08:03:07;10.20;99.90
59309;DHT22;48433;53.016;-2.260;2023-04-06T08:05:35;10.20;99.90
59309;DHT22;48433;53.016;-2.260;2023-04-06T08:08:03;10.20;99.90
59309;DHT22;48433;53.016;-2.260;2023-04-06T08:10:31;10.30;99.90
59309;DHT22;48433;53.016;-2.260;2023-04-06T08:12:58;10.30;99.90
59309;DHT22;48433;53.016;-2.260;2023-04-06T08:15:26;10.30;99.90
59309;DHT22;48433;53.016;-2.260;2023-04-06T08:17:54;10.40;99.90
59309;DHT22;48433;53.016;-2.260;2023-04-06T08:20:24;10.60;99.90
59309;DHT22;48433;53.016;-2.260;2023-04-06T08:22:52;10.70;99.90
59309;DHT22;48433;53.016;-2.260;2023-04-06T08:25:20;10.70;99.90
59309;DHT22;48433;53.016;-2.260;2023-04-06T08:27:48;10.80;99.90
59309;DHT22;48433;53.016;-2.260;2023-04-06T08:30:16;10.90;99.90
59309;DHT22;48433;53.016;-2.260;2023-04-06T08:32:44;11.00;99.90
59309;DHT22;48433;53.016;-2.260;2023-04-06T08:35:13;11.20;99.90
59309;DHT22;48433;53.016;-2.260;2023-04-06T08:37:41;11.20;99.90
59309;DHT22;48433;53.016;-2.260;2023-04-06T08:40:09;11.10;99.90
59309;DHT22;48433;53.016;-2.260;2023-04-06T08:42:40;11.20;99.90
59309;DHT22;48433;53.016;-2.260;2023-04-06T08:45:11;11.20;99.90
59309;DHT22;48433;53.016;-2.260;2023-04-06T08:47:40;11.10;99.90
59309;DHT22;48433;53.016;-2.260;2023-04-06T08:50:10;11.10;99.90
59309;DHT22;48433;53.016;-2.260;2023-04-06T08:52:39;11.30;99.90
59309;DHT22;48433;53.016;-2.260;2023-04-06T08:55:08;11.60;99.90
59309;DHT22;48433;53.016;-2.260;2023-04-06T08:57:36;11.80;99.90
59309;DHT22;48433;53.016;-2.260;2023-04-06T09:00:06;11.80;99.90
59309;DHT22;48433;53.016;-2.260;2023-04-06T09:02:39;11.70;99.90
59309;DHT22;48433;53.016;-2.260;2023-04-06T09:05:09;11.60;99.90
59309;DHT22;48433;53.016;-2.260;2023-04-06T09:07:39;11.40;99.90
59309;DHT22;48433;53.016;-2.260;2023-04-06T09:10:08;10.90;99.90
59309;DHT22;48433;53.016;-2.260;2023-04-06T09:12:35;10.80;99.90
59309;DHT22;48433;53.016;-2.260;2023-04-06T09:15:04;10.60;99.90
59309;DHT22;48433;53.016;-2.260;2023-04-06T09:17:32;10.50;99.90
59309;DHT22;48433;53.016;-2.260;2023-04-06T09:20:02;10.50;99.90
59309;DHT22;48433;53.016;-2.260;2023-04-06T09:22:38;10.70;99.90
59309;DHT22;48433;53.016;-2.260;2023-04-06T09:25:06;11.20;99.90
59309;DHT22;48433;53.016;-2.260;2023-04-06T09:27:35;11.50;99.90
59309;DHT22;48433;53.016;-2.260;2023-04-06T09:30:11;11.60;99.90
59309;DHT22;48433;53.016;-2.260;2023-04-06T09:32:46;11.70;99.90
59309;DHT22;48433;53.016;-2.260;2023-04-06T09:35:14;11.90;99.90
59309;DHT22;48433;53.016;-2.260;2023-04-06T09:37:43;12.10;99.90
59309;DHT22;48433;53.016;-2.260;2023-04-06T09:40:11;12.20;99.90
59309;DHT22;48433;53.016;-2.260;2023-04-06T09:42:42;12.10;99.90
59309;DHT22;48433;53.016;-2.260;2023-04-06T09:45:10;12.30;99.90
59309;DHT22;48433;53.016;-2.260;2023-04-06T09:47:40;12.80;99.90
59309;DHT22;48433;53.016;-2.260;2023-04-06T09:50:11;13.70;99.90
59309;DHT22;48433;53.016;-2.260;2023-04-06T09:52:48;13.90;99.90
59309;DHT22;48433;53.016;-2.260;2023-04-06T09:55:42;14.10;99.90
59309;DHT22;48433;53.016;-2.260;2023-04-06T09:58:13;14.20;99.90
59309;DHT22;48433;53.016;-2.260;2023-04-06T10:00:55;14.30;99.90
59309;DHT22;48433;53.016;-2.260;2023-04-06T10:06:15;14.00;99.90
59309;DHT22;48433;53.016;-2.260;2023-04-06T10:08:47;13.60;99.90
59309;DHT22;48433;53.016;-2.260;2023-04-06T10:11:18;13.60;99.90
59309;DHT22;48433;53.016;-2.260;2023-04-06T10:13:47;13.60;99.90
59309;DHT22;48433;53.016;-2.260;2023-04-06T10:16:16;13.20;99.90
59309;DHT22;48433;53.016;-2.260;2023-04-06T10:18:54;12.50;99.90
59309;DHT22;48433;53.016;-2.260;2023-04-06T10:21:25;11.90;99.90
59309;DHT22;48433;53.016;-2.260;2023-04-06T10:23:59;11.70;99.90
59309;DHT22;48433;53.016;-2.260;2023-04-06T10:26:28;11.60;99.90
59309;DHT22;48433;53.016;-2.260;2023-04-06T10:29:03;11.30;99.90
59309;DHT22;48433;53.016;-2.260;2023-04-06T10:31:31;11.30;99.90
59309;DHT22;48433;53.016;-2.260;2023-04-06T10:34:01;11.20;99.90
59309;DHT22;48433;53.016;-2.260;2023-04-06T10:36:33;11.10;99.90
59309;DHT22;48433;53.016;-2.260;2023-04-06T10:39:04;10.90;99.90
59309;DHT22;48433;53.016;-2.260;2023-04-06T10:44:02;10.90;99.90
59309;DHT22;48433;53.016;-2.260;2023-04-06T10:46:31;11.20;99.90
59309;DHT22;48433;53.016;-2.260;2023-04-06T10:49:10;12.90;99.90
59309;DHT22;48433;53.016;-2.260;2023-04-06T10:51:41;13.00;99.90
59309;DHT22;48433;53.016;-2.260;2023-04-06T10:54:09;14.20;99.90
59309;DHT22;48433;53.016;-2.260;2023-04-06T10:56:38;14.60;99.90
59309;DHT22;48433;53.016;-2.260;2023-04-06T10:59:06;14.00;99.90
59309;DHT22;48433;53.016;-2.260;2023-04-06T11:01:35;13.90;99.90
59309;DHT22;48433;53.016;-2.260;2023-04-06T11:04:03;13.50;99.90
59309;DHT22;48433;53.016;-2.260;2023-04-06T11:06:38;13.10;99.90
59309;DHT22;48433;53.016;-2.260;2023-04-06T11:09:08;13.10;99.90
59309;DHT22;48433;53.016;-2.260;2023-04-06T11:11:38;13.10;99.90
59309;DHT22;48433;53.016;-2.260;2023-04-06T11:14:09;13.90;99.90
59309;DHT22;48433;53.016;-2.260;2023-04-06T11:16:37;14.90;99.90
59309;DHT22;48433;53.016;-2.260;2023-04-06T11:19:05;15.30;99.90
59309;DHT22;48433;53.016;-2.260;2023-04-06T11:21:44;15.30;99.90
59309;DHT22;48433;53.016;-2.260;2023-04-06T11:24:23;15.00;99.90
59309;DHT22;48433;53.016;-2.260;2023-04-06T11:26:55;15.00;99.90
59309;DHT22;48433;53.016;-2.260;2023-04-06T11:29:25;15.10;99.90
59309;DHT22;48433;53.016;-2.260;2023-04-06T11:32:00;15.10;99.90
59309;DHT22;48433;53.016;-2.260;2023-04-06T11:34:29;15.10;99.90
59309;DHT22;48433;53.016;-2.260;2023-04-06T11:37:02;14.90;99.90
59309;DHT22;48433;53.016;-2.260;2023-04-06T11:39:37;15.50;99.90
59309;DHT22;48433;53.016;-2.260;2023-04-06T11:42:06;15.50;99.90
59309;DHT22;48433;53.016;-2.260;2023-04-06T11:44:36;15.80;99.90
59309;DHT22;48433;53.016;-2.260;2023-04-06T11:47:07;15.60;99.90
59309;DHT22;48433;53.016;-2.260;2023-04-06T11:49:40;15.20;99.90
59309;DHT22;48433;53.016;-2.260;2023-04-06T11:52:25;15.20;99.90
59309;DHT22;48433;53.016;-2.260;2023-04-06T11:54:53;15.40;99.90
59309;DHT22;48433;53.016;-2.260;2023-04-06T11:57:22;15.60;99.90
59309;DHT22;48433;53.016;-2.260;2023-04-06T11:59:53;16.00;99.90
59309;DHT22;48433;53.016;-2.260;2023-04-06T12:02:21;16.10;99.90
59309;DHT22;48433;53.016;-2.260;2023-04-06T12:04:48;16.20;99.90
59309;DHT22;48433;53.016;-2.260;2023-04-06T12:07:16;16.00;99.90
59309;DHT22;48433;53.016;-2.260;2023-04-06T12:09:44;15.70;99.90
59309;DHT22;48433;53.016;-2.260;2023-04-06T12:12:12;15.60;99.90
59309;DHT22;48433;53.016;-2.260;2023-04-06T12:14:39;15.50;99.90
59309;DHT22;48433;53.016;-2.260;2023-04-06T12:17:07;15.20;99.90
59309;DHT22;48433;53.016;-2.260;2023-04-06T12:19:34;14.70;99.90
59309;DHT22;48433;53.016;-2.260;2023-04-06T12:22:02;14.70;99.90
59309;DHT22;48433;53.016;-2.260;2023-04-06T12:24:30;14.20;99.90
59309;DHT22;48433;53.016;-2.260;2023-04-06T12:26:58;14.10;99.90
59309;DHT22;48433;53.016;-2.260;2023-04-06T12:29:36;13.70;99.90
59309;DHT22;48433;53.016;-2.260;2023-04-06T12:32:03;13.60;99.90
59309;DHT22;48433;53.016;-2.260;2023-04-06T12:34:32;13.40;99.90
59309;DHT22;48433;53.016;-2.260;2023-04-06T12:37:00;13.40;99.90
59309;DHT22;48433;53.016;-2.260;2023-04-06T12:39:28;14.40;99.90
59309;DHT22;48433;53.016;-2.260;2023-04-06T12:41:55;14.50;99.90
59309;DHT22;48433;53.016;-2.260;2023-04-06T12:44:24;15.20;99.90
59309;DHT22;48433;53.016;-2.260;2023-04-06T12:46:53;15.30;99.90
59309;DHT22;48433;53.016;-2.260;2023-04-06T12:49:21;14.60;99.90
59309;DHT22;48433;53.016;-2.260;2023-04-06T12:51:49;14.10;99.90
59309;DHT22;48433;53.016;-2.260;2023-04-06T12:54:17;14.10;99.90
59309;DHT22;48433;53.016;-2.260;2023-04-06T12:56:45;13.70;99.90
59309;DHT22;48433;53.016;-2.260;2023-04-06T12:59:13;13.40;99.90
59309;DHT22;48433;53.016;-2.260;2023-04-06T13:01:41;13.30;99.90
59309;DHT22;48433;53.016;-2.260;2023-04-06T13:04:08;13.50;99.90
59309;DHT22;48433;53.016;-2.260;2023-04-06T13:06:36;14.30;99.90
59309;DHT22;48433;53.016;-2.260;2023-04-06T13:09:03;15.50;99.90
59309;DHT22;48433;53.016;-2.260;2023-04-06T13:11:32;16.20;99.90
59309;DHT22;48433;53.016;-2.260;2023-04-06T13:14:00;16.30;99.90
59309;DHT22;48433;53.016;-2.260;2023-04-06T13:16:28;16.30;99.90
59309;DHT22;48433;53.016;-2.260;2023-04-06T13:18:55;16.80;99.90
59309;DHT22;48433;53.016;-2.260;2023-04-06T13:21:23;17.30;97.50
59309;DHT22;48433;53.016;-2.260;2023-04-06T13:23:51;17.80;97.30
59309;DHT22;48433;53.016;-2.260;2023-04-06T13:26:18;18.60;96.90
59309;DHT22;48433;53.016;-2.260;2023-04-06T13:28:47;19.30;95.40
59309;DHT22;48433;53.016;-2.260;2023-04-06T13:31:15;20.00;91.80
59309;DHT22;48433;53.016;-2.260;2023-04-06T13:33:42;20.40;87.40
59309;DHT22;48433;53.016;-2.260;2023-04-06T13:36:10;20.10;79.50
59309;DHT22;48433;53.016;-2.260;2023-04-06T13:38:38;19.80;80.70
59309;DHT22;48433;53.016;-2.260;2023-04-06T13:41:06;20.00;77.80
59309;DHT22;48433;53.016;-2.260;2023-04-06T13:43:34;20.30;78.50
59309;DHT22;48433;53.016;-2.260;2023-04-06T13:46:02;20.50;77.10
59309;DHT22;48433;53.016;-2.260;2023-04-06T13:48:29;19.90;71.20
59309;DHT22;48433;53.016;-2.260;2023-04-06T13:50:57;18.60;73.70
59309;DHT22;48433;53.016;-2.260;2023-04-06T13:53:25;18.60;78.50
59309;DHT22;48433;53.016;-2.260;2023-04-06T13:55:55;19.10;77.90
59309;DHT22;48433;53.016;-2.260;2023-04-06T13:58:23;19.40;76.90
59309;DHT22;48433;53.016;-2.260;2023-04-06T14:00:50;20.10;73.70
59309;DHT22;48433;53.016;-2.260;2023-04-06T14:03:19;20.10;69.90
59309;DHT22;48433;53.016;-2.260;2023-04-06T14:05:47;19.90;69.00
59309;DHT22;48433;53.016;-2.260;2023-04-06T14:08:14;19.10;70.50
59309;DHT22;48433;53.016;-2.260;2023-04-06T14:10:42;18.40;72.60
59309;DHT22;48433;53.016;-2.260;2023-04-06T14:13:10;18.30;74.80
59309;DHT22;48433;53.016;-2.260;2023-04-06T14:15:39;17.90;76.10
59309;DHT22;48433;53.016;-2.260;2023-04-06T14:18:07;17.20;77.10
59309;DHT22;48433;53.016;-2.260;2023-04-06T14:20:35;16.40;79.80
59309;DHT22;48433;53.016;-2.260;2023-04-06T14:23:03;16.20;82.10
59309;DHT22;48433;53.016;-2.260;2023-04-06T14:25:31;16.60;85.00
59309;DHT22;48433;53.016;-2.260;2023-04-06T14:27:59;17.50;84.20
59309;DHT22;48433;53.016;-2.260;2023-04-06T14:30:27;18.30;73.40
59309;DHT22;48433;53.016;-2.260;2023-04-06T14:32:57;18.30;75.10
59309;DHT22;48433;53.016;-2.260;2023-04-06T14:35:25;18.30;75.20
59309;DHT22;48433;53.016;-2.260;2023-04-06T14:37:56;17.90;77.30
59309;DHT22;48433;53.016;-2.260;2023-04-06T14:40:25;17.90;75.70
59309;DHT22;48433;53.016;-2.260;2023-04-06T14:42:53;18.10;77.50
59309;DHT22;48433;53.016;-2.260;2023-04-06T14:45:22;18.60;76.80
59309;DHT22;48433;53.016;-2.260;2023-04-06T14:47:49;18.90;74.10
59309;DHT22;48433;53.016;-2.260;2023-04-06T14:50:18;19.40;72.50
59309;DHT22;48433;53.016;-2.260;2023-04-06T14:52:45;19.60;73.10
59309;DHT22;48433;53.016;-2.260;2023-04-06T14:55:14;20.10;71.40
59309;DHT22;48433;53.016;-2.260;2023-04-06T14:57:41;20.40;69.80
59309;DHT22;48433;53.016;-2.260;2023-04-06T15:00:09;21.20;67.90
59309;DHT22;48433;53.016;-2.260;2023-04-06T15:02:38;21.40;69.20
59309;DHT22;48433;53.016;-2.260;2023-04-06T15:05:06;21.80;65.80
59309;DHT22;48433;53.016;-2.260;2023-04-06T15:07:34;21.90;64.10
59309;DHT22;48433;53.016;-2.260;2023-04-06T15:10:04;22.30;58.60
59309;DHT22;48433;53.016;-2.260;2023-04-06T15:12:32;22.40;59.40
59309;DHT22;48433;53.016;-2.260;2023-04-06T15:15:00;22.10;59.60
59309;DHT22;48433;53.016;-2.260;2023-04-06T15:17:28;21.60;59.50
59309;DHT22;48433;53.016;-2.260;2023-04-06T15:19:55;21.60;60.40
59309;DHT22;48433;53.016;-2.260;2023-04-06T15:22:23;21.70;61.70
59309;DHT22;48433;53.016;-2.260;2023-04-06T15:24:51;21.90;59.10
59309;DHT22;48433;53.016;-2.260;2023-04-06T15:27:18;21.70;55.60
59309;DHT22;48433;53.016;-2.260;2023-04-06T15:29:46;21.20;55.20
59309;DHT22;48433;53.016;-2.260;2023-04-06T15:32:13;21.10;56.20
59309;DHT22;48433;53.016;-2.260;2023-04-06T15:34:41;21.00;57.10
59309;DHT22;48433;53.016;-2.260;2023-04-06T15:37:09;21.10;57.20
59309;DHT22;48433;53.016;-2.260;2023-04-06T15:39:37;21.20;57.40
59309;DHT22;48433;53.016;-2.260;2023-04-06T15:42:05;21.20;58.40
59309;DHT22;48433;53.016;-2.260;2023-04-06T15:44:33;21.50;58.50
59309;DHT22;48433;53.016;-2.260;2023-04-06T15:47:00;21.40;58.50
59309;DHT22;48433;53.016;-2.260;2023-04-06T15:49:28;21.50;56.60